Time;durP1;ratioP1;P1;durP2;ratioP2;P2;SDS_P1;SDS_P2;PMS_P1;PMS_P2;Temp;Humidity;BMP_temperature;BMP_pressure;BME280_temperature;BME280_humidity;BME280_pressure;Samples;Min_cycle;Max_cycle;Signal;HPM_P1;HPM_P2
2022/05/27 00:02:15;;;;;;;1.92;1.05;;;;;;;;;;5071612;28;20059;-69
2022/05/27 00:04:42;;;;;;;6.13;1.23;;;;;;;;;;5071058;28;20510;-70
2022/05/27 00:07:09;;;;;;;2.53;1.30;;;;;;;;;;5071646;28;20044;-69
2022/05/27 00:09:35;;;;;;;2.33;1.08;;;;;;;;;;5071749;28;20056;-70
2022/05/27 00:12:03;;;;;;;3.05;1.40;;;;;;;;;;5070336;28;20053;-69
2022/05/27 00:14:29;;;;;;;2.50;1.05;;;;;;;;;;5071493;28;20045;-70
2022/05/27 00:16:56;;;;;;;4.82;1.35;;;;;;;;;;5071470;28;20041;-69
2022/05/27 00:19:23;;;;;;;2.40;0.93;;;;;;;;;;5071348;28;20541;-70
2022/05/27 00:21:49;;;;;;;2.85;1.00;;;;;;;;;;5073845;28;20090;-70
2022/05/27 00:24:16;;;;;;;3.15;1.38;;;;;;;;;;5072206;28;20113;-69
2022/05/27 00:26:42;;;;;;;3.33;1.27;;;;;;;;;;5071593;28;20079;-70
2022/05/27 00:29:09;;;;;;;1.88;1.50;;;;;;;;;;5071420;28;20098;-70
2022/05/27 00:31:36;;;;;;;2.75;1.55;;;;;;;;;;5070622;28;20109;-70
2022/05/27 00:34:02;;;;;;;2.55;1.10;;;;;;;;;;5071535;28;20114;-69
2022/05/27 00:36:29;;;;;;;2.60;1.65;;;;;;;;;;5071670;28;20040;-70
2022/05/27 00:38:56;;;;;;;2.00;1.17;;;;;;;;;;5071576;28;20053;-69
2022/05/27 00:41:22;;;;;;;3.40;1.10;;;;;;;;;;5071422;28;20048;-69
2022/05/27 00:43:49;;;;;;;1.88;1.20;;;;;;;;;;5071273;28;20057;-70
2022/05/27 00:46:21;;;;;;;2.00;1.10;;;;;;;;;;5071334;28;20070;-70
2022/05/27 00:48:51;;;;;;;2.75;0.98;;;;;;;;;;5054288;28;20060;-69
2022/05/27 00:51:20;;;;;;;3.28;1.27;;;;;;;;;;5070000;28;20056;-69
2022/05/27 00:53:58;;;;;;;3.53;1.83;;;;;;;;;;5053504;28;20125;-70
2022/05/27 00:56:26;;;;;;;3.45;1.13;;;;;;;;;;5070015;28;20385;-70
2022/05/27 00:58:55;;;;;;;1.85;1.15;;;;;;;;;;5071080;28;20048;-70
2022/05/27 01:01:21;;;;;;;2.13;1.23;;;;;;;;;;5069799;28;20404;-69
2022/05/27 01:03:48;;;;;;;2.65;1.00;;;;;;;;;;5071090;28;20052;-69
2022/05/27 01:06:15;;;;;;;2.75;1.30;;;;;;;;;;5053354;28;20206;-69
2022/05/27 01:08:41;;;;;;;2.22;1.20;;;;;;;;;;5071247;28;20063;-69
2022/05/27 01:11:37;;;;;;;4.40;1.10;;;;;;;;;;5069579;28;20057;-69
2022/05/27 01:14:28;;;;;;;1.65;1.00;;;;;;;;;;5070214;28;20114;-70
2022/05/27 01:17:11;;;;;;;2.50;1.30;;;;;;;;;;5072632;28;20045;-69
2022/05/27 01:20:21;;;;;;;2.65;1.35;;;;;;;;;;5073247;28;20049;-69
2022/05/27 01:23:09;;;;;;;2.17;1.20;;;;;;;;;;5053674;28;20059;-69
2022/05/27 01:25:46;;;;;;;1.80;1.05;;;;;;;;;;5074432;28;20098;-69
2022/05/27 01:28:25;;;;;;;1.73;1.00;;;;;;;;;;5074457;28;20048;-70
2022/05/27 01:31:10;;;;;;;2.65;1.20;;;;;;;;;;5072600;28;20049;-69
2022/05/27 01:34:05;;;;;;;3.17;1.27;;;;;;;;;;5074380;28;20045;-69
2022/05/27 01:36:59;;;;;;;2.25;1.15;;;;;;;;;;5045983;28;20338;-69
2022/05/27 01:39:35;;;;;;;4.70;1.30;;;;;;;;;;5074008;28;20098;-69
2022/05/27 01:42:19;;;;;;;2.22;1.40;;;;;;;;;;5056862;28;20060;-70
2022/05/27 01:44:54;;;;;;;2.20;1.27;;;;;;;;;;5074180;28;20048;-69
2022/05/27 01:47:44;;;;;;;2.83;1.20;;;;;;;;;;5073138;28;20049;-69
2022/05/27 01:50:10;;;;;;;2.00;1.17;;;;;;;;;;5073955;28;20094;-69
2022/05/27 01:52:43;;;;;;;1.88;1.30;;;;;;;;;;5073831;28;20458;-69
2022/05/27 01:55:18;;;;;;;2.10;1.30;;;;;;;;;;5072704;28;20048;-70
2022/05/27 01:57:48;;;;;;;2.88;1.00;;;;;;;;;;5073856;28;20052;-69
2022/05/27 02:00:20;;;;;;;2.00;1.30;;;;;;;;;;5075525;22;20048;-68
2022/05/27 02:02:59;;;;;;;3.83;1.10;;;;;;;;;;5053852;28;20053;-68
2022/05/27 02:05:26;;;;;;;3.45;1.38;;;;;;;;;;5053577;28;20050;-68
2022/05/27 02:08:31;;;;;;;4.65;1.30;;;;;;;;;;5052383;28;20114;-69
2022/05/27 02:11:05;;;;;;;2.70;1.35;;;;;;;;;;5011234;28;20655;-68
2022/05/27 02:14:04;;;;;;;2.03;1.10;;;;;;;;;;5033251;28;20057;-68
2022/05/27 02:16:52;;;;;;;3.58;1.30;;;;;;;;;;5042319;28;20044;-67
2022/05/27 02:19:23;;;;;;;3.72;1.25;;;;;;;;;;5035919;28;20132;-68
2022/05/27 02:22:27;;;;;;;3.40;1.13;;;;;;;;;;5053313;28;20458;-68
2022/05/27 02:25:00;;;;;;;1.30;1.05;;;;;;;;;;5041928;28;20049;-68
2022/05/27 02:27:30;;;;;;;2.70;1.20;;;;;;;;;;5052270;28;20049;-69
2022/05/27 02:29:58;;;;;;;3.13;1.05;;;;;;;;;;5018983;28;20057;-67
2022/05/27 02:32:46;;;;;;;3.58;1.40;;;;;;;;;;5034986;28;20049;-68
2022/05/27 02:35:18;;;;;;;1.58;0.90;;;;;;;;;;5037591;28;20060;-68
2022/05/27 02:37:48;;;;;;;0.95;0.95;;;;;;;;;;5051995;28;20118;-67
2022/05/27 02:40:20;;;;;;;2.33;1.52;;;;;;;;;;5035646;28;20049;-68
2022/05/27 02:42:57;;;;;;;2.30;1.38;;;;;;;;;;5052805;28;20052;-68
2022/05/27 02:45:40;;;;;;;1.50;1.00;;;;;;;;;;5051570;28;20084;-68
2022/05/27 02:48:16;;;;;;;;;;;;;;;;;;5052340;28;20053;-69
2022/05/27 02:50:58;;;;;;;1.92;1.25;;;;;;;;;;5052590;28;19920;-68
2022/05/27 02:53:44;;;;;;;2.07;1.10;;;;;;;;;;5051477;28;20428;-69
2022/05/27 02:56:18;;;;;;;3.10;1.50;;;;;;;;;;5051374;28;20310;-68
2022/05/27 02:58:45;;;;;;;1.67;1.30;;;;;;;;;;5035366;28;20055;-68
2022/05/27 03:01:11;;;;;;;3.40;1.48;;;;;;;;;;5052239;28;20053;-68
2022/05/27 03:03:38;;;;;;;1.98;1.45;;;;;;;;;;5052468;28;20462;-68
2022/05/27 03:06:31;;;;;;;3.05;1.30;;;;;;;;;;5052781;28;20071;-68
2022/05/27 03:09:13;;;;;;;1.83;1.10;;;;;;;;;;5051446;28;20045;-68
2022/05/27 03:11:47;;;;;;;2.45;1.50;;;;;;;;;;5051062;28;20072;-67
2022/05/27 03:14:25;;;;;;;1.27;1.17;;;;;;;;;;5052143;28;20098;-68
2022/05/27 03:17:12;;;;;;;3.67;1.30;;;;;;;;;;5052421;28;20057;-68
2022/05/27 03:19:50;;;;;;;2.75;1.63;;;;;;;;;;5052108;28;20060;-68
2022/05/27 03:22:35;;;;;;;2.97;1.33;;;;;;;;;;5052197;28;20454;-68
2022/05/27 03:25:07;;;;;;;2.25;1.20;;;;;;;;;;5052342;28;20064;-68
2022/05/27 03:27:58;;;;;;;4.10;1.25;;;;;;;;;;5052244;28;20114;-68
2022/05/27 03:30:37;;;;;;;2.72;1.35;;;;;;;;;;5050770;28;20060;-68
2022/05/27 03:33:11;;;;;;;1.55;1.20;;;;;;;;;;5050242;28;20053;-68
2022/05/27 03:36:00;;;;;;;1.98;1.10;;;;;;;;;;5050600;28;20475;-69
2022/05/27 03:38:59;;;;;;;2.67;1.20;;;;;;;;;;5051951;28;20052;-67
2022/05/27 03:41:31;;;;;;;4.05;1.13;;;;;;;;;;5044253;28;20098;-68
2022/05/27 03:43:58;;;;;;;2.00;1.50;;;;;;;;;;5050811;28;20045;-68
2022/05/27 03:46:36;;;;;;;1.60;1.33;;;;;;;;;;5051876;28;20053;-68
2022/05/27 03:49:04;;;;;;;2.80;1.38;;;;;;;;;;5051818;28;20079;-68
2022/05/27 03:51:36;;;;;;;3.25;1.45;;;;;;;;;;5051777;28;20392;-69
2022/05/27 03:54:04;;;;;;;2.15;1.33;;;;;;;;;;5050570;28;20114;-68
2022/05/27 03:56:35;;;;;;;2.80;1.30;;;;;;;;;;5034497;28;20461;-68
2022/05/27 03:59:02;;;;;;;3.80;1.30;;;;;;;;;;5051791;28;20114;-68
2022/05/27 04:01:30;;;;;;;2.17;1.02;;;;;;;;;;5051241;28;20048;-68
2022/05/27 04:03:58;;;;;;;3.70;1.30;;;;;;;;;;5051742;28;20049;-67
2022/05/27 04:06:26;;;;;;;2.95;1.20;;;;;;;;;;5052176;28;20053;-68
2022/05/27 04:08:53;;;;;;;1.42;1.30;;;;;;;;;;5051464;28;20057;-68
2022/05/27 04:11:20;;;;;;;2.88;1.25;;;;;;;;;;5051448;28;20099;-67
2022/05/27 04:13:47;;;;;;;2.60;1.48;;;;;;;;;;5051748;28;20110;-67
2022/05/27 04:16:13;;;;;;;2.22;1.20;;;;;;;;;;5051555;28;20041;-68
2022/05/27 04:18:40;;;;;;;3.47;1.58;;;;;;;;;;5051501;28;20052;-67
2022/05/27 04:21:07;;;;;;;3.72;1.55;;;;;;;;;;5051558;28;20053;-69
2022/05/27 04:23:34;;;;;;;2.13;1.42;;;;;;;;;;5051389;28;20496;-68
2022/05/27 04:26:00;;;;;;;1.70;1.10;;;;;;;;;;5051711;28;20079;-68
2022/05/27 04:28:27;;;;;;;3.55;1.48;;;;;;;;;;5051538;28;20095;-68
2022/05/27 04:30:53;;;;;;;1.95;1.25;;;;;;;;;;5050716;28;20496;-68
2022/05/27 04:33:21;;;;;;;4.18;1.50;;;;;;;;;;5051512;28;20049;-67
2022/05/27 04:35:47;;;;;;;2.05;1.48;;;;;;;;;;5051583;28;20057;-68
2022/05/27 04:38:14;;;;;;;1.98;1.17;;;;;;;;;;5051285;28;20099;-67
2022/05/27 04:40:41;;;;;;;3.92;1.88;;;;;;;;;;5051077;28;20045;-68
2022/05/27 04:43:07;;;;;;;3.42;1.63;;;;;;;;;;5051014;28;20049;-68
2022/05/27 04:45:34;;;;;;;3.25;1.40;;;;;;;;;;5051718;28;20135;-68
2022/05/27 04:48:01;;;;;;;3.33;1.20;;;;;;;;;;5051166;28;20473;-68
2022/05/27 04:50:28;;;;;;;2.63;1.90;;;;;;;;;;5051342;28;20055;-68
2022/05/27 04:52:55;;;;;;;1.67;1.50;;;;;;;;;;5052995;28;20056;-68
2022/05/27 04:55:22;;;;;;;3.10;1.60;;;;;;;;;;5055105;28;20462;-68
2022/05/27 04:57:51;;;;;;;4.90;1.60;;;;;;;;;;5054929;28;20056;-68
2022/05/27 05:00:25;;;;;;;3.83;1.52;;;;;;;;;;5054663;28;20053;-68
2022/05/27 05:02:52;;;;;;;2.42;1.60;;;;;;;;;;5054617;28;20392;-68
2022/05/27 05:05:19;;;;;;;3.63;1.80;;;;;;;;;;5054769;28;20492;-67
2022/05/27 05:07:51;;;;;;;2.17;1.70;;;;;;;;;;5054884;28;20049;-68
2022/05/27 05:10:19;;;;;;;3.92;1.50;;;;;;;;;;5053613;28;20079;-68
2022/05/27 05:12:46;;;;;;;4.80;1.70;;;;;;;;;;5054331;28;20045;-68
2022/05/27 05:15:13;;;;;;;1.95;1.35;;;;;;;;;;5054471;28;20483;-68
2022/05/27 05:17:40;;;;;;;2.33;1.58;;;;;;;;;;5054580;28;20041;-68
2022/05/27 05:20:07;;;;;;;3.50;1.95;;;;;;;;;;5054505;28;20099;-68
2022/05/27 05:22:34;;;;;;;3.10;1.88;;;;;;;;;;5054163;28;20052;-68
2022/05/27 05:25:01;;;;;;;2.53;1.70;;;;;;;;;;5054425;28;20049;-67
2022/05/27 05:27:27;;;;;;;2.97;1.98;;;;;;;;;;5054326;28;20071;-68
2022/05/27 05:29:55;;;;;;;3.83;1.77;;;;;;;;;;5054359;28;20102;-68
2022/05/27 05:32:22;;;;;;;3.33;1.60;;;;;;;;;;5053480;28;20103;-68
2022/05/27 05:34:52;;;;;;;4.07;1.85;;;;;;;;;;5054319;28;20052;-68
2022/05/27 05:37:19;;;;;;;2.45;1.50;;;;;;;;;;5054179;28;20071;-68
2022/05/27 05:39:46;;;;;;;2.63;1.40;;;;;;;;;;5053993;28;20110;-68
2022/05/27 05:42:13;;;;;;;5.85;2.10;;;;;;;;;;5053750;28;20451;-68
2022/05/27 05:44:39;;;;;;;4.38;1.92;;;;;;;;;;5054021;28;20049;-68
2022/05/27 05:47:06;;;;;;;2.78;1.70;;;;;;;;;;5054066;28;20049;-68
2022/05/27 05:49:33;;;;;;;1.70;1.60;;;;;;;;;;5054061;28;20073;-68
2022/05/27 05:52:00;;;;;;;3.05;1.60;;;;;;;;;;5053601;28;20495;-68
2022/05/27 05:54:27;;;;;;;4.13;2.03;;;;;;;;;;5053736;28;20053;-68
2022/05/27 05:56:54;;;;;;;3.40;2.22;;;;;;;;;;5053956;28;20049;-68
2022/05/27 05:59:22;;;;;;;3.55;2.05;;;;;;;;;;5054137;28;20123;-68
2022/05/27 06:01:49;;;;;;;2.50;1.92;;;;;;;;;;5053433;28;20135;-68
2022/05/27 06:04:15;;;;;;;4.32;2.22;;;;;;;;;;5052707;28;20060;-68
2022/05/27 06:06:42;;;;;;;4.90;2.63;;;;;;;;;;5053548;28;20049;-69
2022/05/27 06:09:09;;;;;;;3.90;2.25;;;;;;;;;;5053374;28;20106;-68
2022/05/27 06:11:38;;;;;;;3.92;2.20;;;;;;;;;;5053310;28;20221;-68
2022/05/27 06:14:06;;;;;;;3.03;1.92;;;;;;;;;;5053504;28;20049;-68
2022/05/27 06:16:33;;;;;;;5.10;2.10;;;;;;;;;;5053339;28;20103;-68
2022/05/27 06:19:00;;;;;;;5.85;2.88;;;;;;;;;;5053445;28;20052;-68
2022/05/27 06:21:26;;;;;;;5.22;2.95;;;;;;;;;;5052958;28;20492;-68
2022/05/27 06:23:53;;;;;;;6.47;2.80;;;;;;;;;;5053304;28;20099;-68
2022/05/27 06:26:20;;;;;;;7.22;3.08;;;;;;;;;;5052357;28;20049;-68
2022/05/27 06:34:26;;;;;;;3.67;2.45;;;;;;;;;;5053019;28;20116;-68
2022/05/27 06:37:21;;;;;;;6.13;2.80;;;;;;;;;;5053201;28;20049;-68
2022/05/27 06:39:48;;;;;;;3.15;2.33;;;;;;;;;;5050898;28;20049;-68
2022/05/27 06:42:16;;;;;;;7.25;3.00;;;;;;;;;;5034979;28;20053;-68
2022/05/27 06:45:06;;;;;;;3.58;2.60;;;;;;;;;;5052721;28;20503;-69
2022/05/27 06:47:32;;;;;;;4.63;2.65;;;;;;;;;;5052316;28;20057;-68
2022/05/27 06:49:59;;;;;;;2.40;2.20;;;;;;;;;;5055152;28;20482;-68
2022/05/27 06:52:26;;;;;;;3.85;2.63;;;;;;;;;;5054069;28;20049;-68
2022/05/27 06:54:53;;;;;;;9.50;3.08;;;;;;;;;;5052615;28;20052;-68
2022/05/27 06:57:20;;;;;;;5.70;2.50;;;;;;;;;;5052477;28;20044;-69
2022/05/27 06:59:46;;;;;;;4.68;2.25;;;;;;;;;;5052418;28;20048;-69
2022/05/27 07:02:13;;;;;;;2.78;2.30;;;;;;;;;;5052529;28;20049;-67
2022/05/27 07:04:40;;;;;;;4.15;2.30;;;;;;;;;;5053002;28;20056;-68
2022/05/27 07:07:07;;;;;;;2.95;2.22;;;;;;;;;;5052383;28;20102;-69
2022/05/27 07:09:36;;;;;;;3.80;2.50;;;;;;;;;;5052361;28;20099;-68
2022/05/27 07:12:06;;;;;;;4.78;2.38;;;;;;;;;;5052144;28;20056;-68
2022/05/27 07:14:32;;;;;;;4.78;2.30;;;;;;;;;;5051216;28;20119;-68
2022/05/27 07:16:59;;;;;;;5.13;2.42;;;;;;;;;;5052356;28;20412;-68
2022/05/27 07:19:35;;;;;;;2.85;2.42;;;;;;;;;;5051402;28;20102;-68
2022/05/27 07:22:02;;;;;;;3.72;1.80;;;;;;;;;;5052015;28;20057;-67
2022/05/27 07:24:28;;;;;;;3.83;2.63;;;;;;;;;;5051257;28;20064;-68
2022/05/27 07:26:55;;;;;;;4.97;2.35;;;;;;;;;;5052282;28;20052;-68
2022/05/27 07:29:22;;;;;;;3.45;1.80;;;;;;;;;;5052230;28;20462;-68
2022/05/27 07:31:49;;;;;;;6.25;2.25;;;;;;;;;;5051384;28;20049;-68
2022/05/27 07:34:16;;;;;;;5.40;2.50;;;;;;;;;;5051788;28;20052;-67
2022/05/27 07:36:42;;;;;;;3.88;2.60;;;;;;;;;;5051631;28;20053;-68
2022/05/27 07:39:09;;;;;;;6.63;1.95;;;;;;;;;;5051950;28;20106;-68
2022/05/27 07:41:37;;;;;;;5.47;2.05;;;;;;;;;;5051791;28;20048;-68
2022/05/27 07:44:05;;;;;;;5.53;2.97;;;;;;;;;;5051970;28;20049;-68
2022/05/27 07:46:33;;;;;;;3.47;1.90;;;;;;;;;;5051824;28;20067;-68
2022/05/27 07:49:00;;;;;;;3.55;1.90;;;;;;;;;;5051840;28;20045;-68
2022/05/27 07:51:47;;;;;;;3.92;2.42;;;;;;;;;;5051674;28;20053;-68
2022/05/27 07:54:14;;;;;;;4.60;2.60;;;;;;;;;;5051722;28;20448;-68
2022/05/27 07:56:42;;;;;;;6.30;2.10;;;;;;;;;;5034084;28;20094;-67
2022/05/27 07:59:09;;;;;;;4.85;2.20;;;;;;;;;;5051594;28;20132;-68
2022/05/27 08:01:36;;;;;;;3.72;2.15;;;;;;;;;;5085225;22;20044;-69
2022/05/27 08:04:04;;;;;;;4.65;2.13;;;;;;;;;;5071221;28;20063;-69
2022/05/27 08:06:31;;;;;;;3.92;2.15;;;;;;;;;;5071964;28;20049;-69
2022/05/27 08:08:58;;;;;;;3.75;2.00;;;;;;;;;;5071825;28;20055;-69
2022/05/27 08:11:24;;;;;;;4.07;1.88;;;;;;;;;;5071598;28;20105;-69
2022/05/27 08:13:52;;;;;;;5.13;1.75;;;;;;;;;;5071911;28;20048;-68
2022/05/27 08:16:18;;;;;;;5.10;2.33;;;;;;;;;;5071441;28;20056;-68
2022/05/27 08:18:45;;;;;;;3.22;2.70;;;;;;;;;;5071582;28;20049;-69
2022/05/27 08:21:12;;;;;;;4.65;2.35;;;;;;;;;;5071613;28;20044;-69
2022/05/27 08:23:38;;;;;;;4.88;2.15;;;;;;;;;;5071941;28;20052;-68
2022/05/27 08:26:05;;;;;;;2.42;2.10;;;;;;;;;;5071929;28;20151;-68
2022/05/27 08:28:31;;;;;;;5.03;1.98;;;;;;;;;;5075427;28;20131;-68
2022/05/27 08:30:59;;;;;;;3.35;1.70;;;;;;;;;;5074538;28;20067;-68
2022/05/27 08:38:00;;;;;;;3.05;2.10;;;;;;;;;;5075587;28;20053;-70
2022/05/27 08:39:11;;;;;;;5.30;2.03;;;;;;;;;;5075067;28;20055;-69
2022/05/27 08:42:15;;;;;;;4.57;2.30;;;;;;;;;;5057536;28;20051;-69
2022/05/27 08:44:49;;;;;;;2.55;2.00;;;;;;;;;;5074051;28;20049;-69
2022/05/27 08:47:35;;;;;;;4.30;2.13;;;;;;;;;;5074461;28;20052;-69
2022/05/27 08:50:11;;;;;;;4.30;2.22;;;;;;;;;;5074306;28;20461;-69
2022/05/27 08:52:44;;;;;;;4.68;2.08;;;;;;;;;;5073707;28;20464;-69
2022/05/27 09:01:18;;;;;;;4.13;2.28;;;;;;;;;;5073900;28;20112;-68
2022/05/27 09:03:54;;;;;;;5.20;2.05;;;;;;;;;;5073658;28;20052;-69
2022/05/27 09:06:43;;;;;;;8.05;2.25;;;;;;;;;;5074635;28;20052;-69
2022/05/27 09:09:18;;;;;;;5.88;1.83;;;;;;;;;;5073863;28;20070;-68
2022/05/27 09:12:22;;;;;;;2.85;2.10;;;;;;;;;;5074488;28;20052;-69
2022/05/27 09:15:09;;;;;;;4.55;1.95;;;;;;;;;;5074829;28;20040;-69
2022/05/27 09:17:42;;;;;;;2.78;1.65;;;;;;;;;;5059133;28;20102;-69
2022/05/27 09:20:38;;;;;;;2.95;1.50;;;;;;;;;;5073399;28;20495;-69
2022/05/27 09:23:30;;;;;;;2.45;1.92;;;;;;;;;;5074581;28;20052;-70
2022/05/27 09:26:01;;;;;;;2.05;1.85;;;;;;;;;;5073712;28;20057;-69
2022/05/27 09:28:34;;;;;;;2.58;1.77;;;;;;;;;;5073326;28;20048;-68
2022/05/27 09:31:01;;;;;;;3.05;1.88;;;;;;;;;;5072416;28;20048;-69
2022/05/27 09:33:28;;;;;;;1.98;1.77;;;;;;;;;;5056375;28;20057;-69
2022/05/27 09:36:03;;;;;;;4.38;1.50;;;;;;;;;;5072916;28;20139;-69
2022/05/27 09:38:32;;;;;;;2.25;1.63;;;;;;;;;;5073239;28;20461;-69
2022/05/27 09:41:23;;;;;;;1.48;1.30;;;;;;;;;;5073962;28;20052;-69
2022/05/27 09:44:10;;;;;;;6.18;1.55;;;;;;;;;;5073032;28;20052;-69
2022/05/27 09:46:36;;;;;;;2.15;1.27;;;;;;;;;;5072897;28;20045;-69
2022/05/27 09:49:03;;;;;;;2.20;1.38;;;;;;;;;;5072620;28;20098;-70
2022/05/27 09:51:31;;;;;;;1.75;1.45;;;;;;;;;;5073854;28;20110;-69
2022/05/27 09:54:19;;;;;;;3.78;1.50;;;;;;;;;;5074009;28;20052;-69
2022/05/27 09:57:02;;;;;;;1.55;1.30;;;;;;;;;;5057870;28;20109;-69
2022/05/27 09:59:48;;;;;;;1.67;1.38;;;;;;;;;;5073973;28;20048;-69
2022/05/27 10:02:35;;;;;;;4.90;1.35;;;;;;;;;;5072495;28;20056;-69
2022/05/27 10:05:02;;;;;;;3.13;1.25;;;;;;;;;;5073758;28;20084;-69
2022/05/27 10:07:35;;;;;;;2.90;1.30;;;;;;;;;;5073672;28;20052;-68
2022/05/27 10:10:22;;;;;;;3.28;1.20;;;;;;;;;;5073741;28;20055;-69
2022/05/27 10:12:48;;;;;;;4.32;1.23;;;;;;;;;;5073431;28;20055;-68
2022/05/27 10:15:32;;;;;;;2.47;1.50;;;;;;;;;;5073385;28;20059;-69
2022/05/27 10:18:23;;;;;;;3.17;2.15;;;;;;;;;;5073468;28;20552;-68
2022/05/27 10:21:01;;;;;;;2.38;1.10;;;;;;;;;;5073425;28;20477;-69
2022/05/27 10:23:30;;;;;;;1.58;1.13;;;;;;;;;;5073250;28;20056;-68
2022/05/27 10:25:58;;;;;;;1.75;1.20;;;;;;;;;;5073301;28;20102;-69
2022/05/27 10:28:30;;;;;;;1.20;1.10;;;;;;;;;;5072132;28;20415;-69
2022/05/27 10:31:03;;;;;;;1.60;1.50;;;;;;;;;;5075200;28;20055;-69
2022/05/27 10:33:42;;;;;;;4.15;1.52;;;;;;;;;;5076749;28;20048;-69
2022/05/27 10:36:39;;;;;;;2.95;1.40;;;;;;;;;;5077071;28;20105;-69
2022/05/27 10:39:05;;;;;;;2.60;1.17;;;;;;;;;;5073711;28;20044;-69
2022/05/27 10:41:41;;;;;;;2.75;1.70;;;;;;;;;;5075121;28;20044;-69
2022/05/27 10:44:19;;;;;;;2.03;1.30;;;;;;;;;;5071787;28;20122;-69
2022/05/27 10:46:55;;;;;;;1.80;1.20;;;;;;;;;;5073442;28;20044;-69
2022/05/27 10:49:29;;;;;;;2.17;1.00;;;;;;;;;;5072629;28;20048;-69
2022/05/27 10:52:30;;;;;;;2.78;1.00;;;;;;;;;;5071235;28;20487;-69
2022/05/27 10:55:12;;;;;;;2.38;1.50;;;;;;;;;;5030147;28;20056;-68
2022/05/27 11:03:38;;;;;;;3.25;1.33;;;;;;;;;;5057736;28;20061;-68
2022/05/27 11:06:09;;;;;;;1.30;1.10;;;;;;;;;;5072638;28;20458;-69
2022/05/27 11:08:43;;;;;;;1.42;0.90;;;;;;;;;;5072476;28;20045;-68
2022/05/27 11:11:18;;;;;;;2.10;1.10;;;;;;;;;;5054668;28;20056;-69
2022/05/27 11:17:15;;;;;;;2.35;1.30;;;;;;;;;;5071435;28;20114;-69
2022/05/27 11:19:42;;;;;;;1.58;1.23;;;;;;;;;;5072056;28;20118;-68
2022/05/27 11:22:31;;;;;;;2.15;1.33;;;;;;;;;;5071854;28;20461;-69
2022/05/27 11:25:21;;;;;;;3.78;1.30;;;;;;;;;;5070986;28;20055;-68
2022/05/27 11:28:24;;;;;;;3.03;1.10;;;;;;;;;;5071997;28;20056;-69
2022/05/27 11:31:20;;;;;;;1.67;1.27;;;;;;;;;;5071421;28;20583;-68
2022/05/27 11:34:12;;;;;;;2.13;1.10;;;;;;;;;;5071989;28;20071;-70
2022/05/27 11:36:54;;;;;;;1.92;1.33;;;;;;;;;;5072229;28;20048;-68
2022/05/27 11:39:52;;;;;;;2.17;1.80;;;;;;;;;;5072401;28;20048;-68
2022/05/27 11:42:43;;;;;;;2.17;1.25;;;;;;;;;;5071528;28;20499;-69
2022/05/27 11:45:21;;;;;;;3.53;0.95;;;;;;;;;;5072093;28;20041;-68
2022/05/27 11:48:17;;;;;;;2.30;1.55;;;;;;;;;;5071953;28;20060;-69
2022/05/27 11:51:10;;;;;;;1.40;1.00;;;;;;;;;;5059346;28;20048;-69
2022/05/27 11:53:46;;;;;;;1.35;0.90;;;;;;;;;;5070694;28;20059;-68
2022/05/27 11:56:16;;;;;;;2.33;0.90;;;;;;;;;;5071814;28;20044;-68
2022/05/27 11:59:00;;;;;;;1.90;0.90;;;;;;;;;;5071917;28;20049;-68
2022/05/27 12:01:49;;;;;;;3.15;1.38;;;;;;;;;;5069469;28;20106;-69
2022/05/27 12:04:33;;;;;;;1.92;0.85;;;;;;;;;;5054476;28;20065;-68
2022/05/27 12:07:23;;;;;;;2.25;0.93;;;;;;;;;;5070476;28;20055;-68
2022/05/27 12:10:17;;;;;;;4.05;1.33;;;;;;;;;;5070569;28;20044;-68
2022/05/27 12:12:46;;;;;;;1.25;1.00;;;;;;;;;;5060147;28;20098;-68
2022/05/27 12:15:39;;;;;;;2.67;0.93;;;;;;;;;;5070310;28;20098;-68
2022/05/27 12:18:10;;;;;;;6.23;1.27;;;;;;;;;;5071539;28;20056;-69
2022/05/27 12:20:36;;;;;;;1.52;0.88;;;;;;;;;;5053673;28;20169;-70
2022/05/27 12:23:09;;;;;;;2.83;0.90;;;;;;;;;;5070241;28;20582;-68
2022/05/27 12:25:46;;;;;;;2.05;0.90;;;;;;;;;;5070211;28;20491;-68
2022/05/27 12:28:16;;;;;;;2.08;0.88;;;;;;;;;;5054208;28;20465;-69
2022/05/27 12:30:43;;;;;;;6.20;1.27;;;;;;;;;;5070057;28;20049;-69
2022/05/27 12:33:16;;;;;;;2.08;0.80;;;;;;;;;;5053617;28;20098;-68
2022/05/27 12:35:54;;;;;;;1.50;0.80;;;;;;;;;;5053984;28;20045;-68
2022/05/27 12:38:25;;;;;;;1.50;0.80;;;;;;;;;;5070040;28;20048;-68
2022/05/27 12:40:55;;;;;;;1.98;0.93;;;;;;;;;;5069786;28;20044;-69
2022/05/27 12:43:23;;;;;;;3.35;1.08;;;;;;;;;;5071391;28;20098;-68
2022/05/27 12:46:02;;;;;;;1.80;1.25;;;;;;;;;;5070319;28;20056;-68
2022/05/27 12:48:36;;;;;;;1.50;0.80;;;;;;;;;;5071253;28;20049;-68
2022/05/27 12:51:05;;;;;;;1.63;0.93;;;;;;;;;;5071122;28;20691;-68
2022/05/27 12:53:44;;;;;;;3.15;0.77;;;;;;;;;;5070045;28;20098;-69
2022/05/27 13:02:14;;;;;;;2.67;0.80;;;;;;;;;;5071072;28;20048;-69
2022/05/27 13:04:48;;;;;;;1.80;0.80;;;;;;;;;;5071104;28;20045;-69
2022/05/27 13:07:28;;;;;;;3.78;1.10;;;;;;;;;;5070998;28;20048;-69
2022/05/27 13:09:55;;;;;;;2.42;1.08;;;;;;;;;;5069827;28;20048;-69
2022/05/27 13:12:47;;;;;;;3.17;0.88;;;;;;;;;;5071289;28;20044;-70
2022/05/27 13:15:32;;;;;;;1.67;1.00;;;;;;;;;;5074700;28;20051;-69
2022/05/27 13:17:59;;;;;;;2.13;0.90;;;;;;;;;;5073423;28;20052;-68
2022/05/27 13:20:41;;;;;;;1.00;0.90;;;;;;;;;;5074238;28;20093;-69
2022/05/27 13:23:08;;;;;;;2.92;1.25;;;;;;;;;;5057512;28;20535;-69
2022/05/27 13:25:42;;;;;;;2.25;1.00;;;;;;;;;;5074456;28;20045;-69
2022/05/27 13:28:11;;;;;;;1.23;1.05;;;;;;;;;;5073305;28;20515;-69
2022/05/27 13:30:52;;;;;;;3.03;2.05;;;;;;;;;;5072953;28;20495;-69
2022/05/27 13:33:23;;;;;;;2.22;1.30;;;;;;;;;;5074575;28;20053;-69
2022/05/27 13:35:50;;;;;;;1.67;1.00;;;;;;;;;;5073475;28;20056;-69
2022/05/27 13:38:25;;;;;;;1.52;1.00;;;;;;;;;;5073191;28;20147;-69
2022/05/27 13:40:52;;;;;;;2.35;0.90;;;;;;;;;;5056452;28;20056;-69
2022/05/27 13:43:24;;;;;;;1.83;1.02;;;;;;;;;;5074001;28;20052;-69
2022/05/27 13:46:09;;;;;;;1.10;0.75;;;;;;;;;;5056860;28;20056;-70
2022/05/27 13:48:37;;;;;;;1.20;0.98;;;;;;;;;;5073051;28;20497;-69
2022/05/27 13:51:10;;;;;;;2.05;1.02;;;;;;;;;;5073876;28;20278;-69
2022/05/27 13:53:38;;;;;;;0.80;0.70;;;;;;;;;;5073811;28;20074;-69
2022/05/27 13:56:34;;;;;;;1.88;0.77;;;;;;;;;;5073748;28;20056;-69
2022/05/27 13:59:33;;;;;;;3.03;0.80;;;;;;;;;;5072715;28;20411;-69
2022/05/27 14:02:00;;;;;;;1.00;1.00;;;;;;;;;;5095426;22;20109;-68
2022/05/27 14:04:40;;;;;;;3.10;1.10;;;;;;;;;;5073908;28;20423;-68
2022/05/27 14:07:26;;;;;;;2.55;1.40;;;;;;;;;;5073817;28;20044;-67
2022/05/27 14:09:59;;;;;;;0.90;0.85;;;;;;;;;;5073636;28;20102;-68
2022/05/27 14:12:32;;;;;;;1.95;1.10;;;;;;;;;;5073302;28;20525;-68
2022/05/27 14:15:09;;;;;;;2.25;0.80;;;;;;;;;;5073798;28;20052;-68
2022/05/27 14:17:40;;;;;;;3.05;0.73;;;;;;;;;;5073701;28;20052;-68
2022/05/27 14:20:13;;;;;;;1.83;0.82;;;;;;;;;;5073439;28;20086;-68
2022/05/27 14:22:44;;;;;;;;;;;;;;;;;;5072163;28;20101;-69
2022/05/27 14:25:16;;;;;;;3.65;0.60;;;;;;;;;;5072329;28;19954;-69
2022/05/27 14:27:48;;;;;;;0.73;0.60;;;;;;;;;;5072330;28;20098;-69
2022/05/27 14:30:19;;;;;;;3.30;0.90;;;;;;;;;;5072271;28;20118;-69
2022/05/27 14:32:46;;;;;;;1.85;0.80;;;;;;;;;;5072786;28;20106;-68
2022/05/27 14:35:18;;;;;;;2.63;1.05;;;;;;;;;;5073325;28;20048;-68
2022/05/27 14:37:50;;;;;;;2.85;0.90;;;;;;;;;;5072253;28;20102;-68
2022/05/27 14:40:42;;;;;;;;;;;;;;;;;;5073415;28;20048;-69
2022/05/27 14:43:24;;;;;;;1.70;0.80;;;;;;;;;;5065914;28;19928;-69
2022/05/27 14:45:55;;;;;;;1.75;0.80;;;;;;;;;;5072033;28;20052;-68
2022/05/27 14:48:23;;;;;;;1.58;0.80;;;;;;;;;;5073100;28;20052;-69
2022/05/27 14:50:50;;;;;;;1.75;0.80;;;;;;;;;;5071540;28;20051;-69
2022/05/27 14:53:17;;;;;;;1.00;0.57;;;;;;;;;;5072873;28;20426;-68
2022/05/27 14:55:43;;;;;;;0.60;0.60;;;;;;;;;;5071567;28;20082;-68
2022/05/27 14:58:10;;;;;;;0.90;0.90;;;;;;;;;;5072665;28;20415;-67
2022/05/27 15:00:49;;;;;;;2.63;1.02;;;;;;;;;;5071325;28;20044;-68
2022/05/27 15:03:59;;;;;;;0.90;0.70;;;;;;;;;;5055371;28;20114;-68
2022/05/27 15:06:26;;;;;;;1.02;0.70;;;;;;;;;;5059808;28;20056;-68
2022/05/27 15:09:30;;;;;;;3.38;0.80;;;;;;;;;;5072237;28;20048;-68
2022/05/27 15:12:23;;;;;;;0.80;0.80;;;;;;;;;;5031240;28;20453;-69
2022/05/27 15:14:50;;;;;;;1.48;0.80;;;;;;;;;;5072333;28;20491;-68
2022/05/27 15:17:28;;;;;;;0.90;0.70;;;;;;;;;;5071196;28;20064;-68
2022/05/27 15:20:02;;;;;;;2.15;0.93;;;;;;;;;;5072031;28;20098;-68
2022/05/27 15:22:31;;;;;;;2.33;0.82;;;;;;;;;;5071940;28;20064;-68
2022/05/27 15:25:07;;;;;;;1.33;0.90;;;;;;;;;;5054661;28;20048;-68
2022/05/27 15:33:32;;;;;;;1.48;0.93;;;;;;;;;;5071179;28;20127;-67
2022/05/27 15:36:00;;;;;;;1.45;0.93;;;;;;;;;;5071779;28;20063;-67
2022/05/27 15:38:28;;;;;;;1.17;1.08;;;;;;;;;;5071831;28;20510;-68
2022/05/27 15:40:58;;;;;;;1.00;0.90;;;;;;;;;;5071659;28;20090;-68
2022/05/27 15:43:30;;;;;;;2.88;0.80;;;;;;;;;;5071776;28;20573;-68
2022/05/27 15:45:58;;;;;;;1.00;0.90;;;;;;;;;;5071909;28;20052;-68
2022/05/27 15:48:25;;;;;;;4.30;0.85;;;;;;;;;;5071963;28;20053;-68
2022/05/27 15:50:52;;;;;;;1.40;0.77;;;;;;;;;;5071473;28;20045;-68
2022/05/27 15:53:20;;;;;;;1.10;0.90;;;;;;;;;;5071923;28;20102;-69
2022/05/27 15:55:47;;;;;;;1.90;0.73;;;;;;;;;;5072444;28;20536;-69
2022/05/27 15:58:14;;;;;;;0.93;0.77;;;;;;;;;;5071925;28;20503;-68
2022/05/27 16:00:42;;;;;;;0.63;0.63;;;;;;;;;;5071424;28;20098;-69